Photometre #741[NE_1.6] Arcachon AOT

File : 20220825_741.hum

25/08/2022,06:10:01,TEMP=22.2,BA=5.36,STAT.A=1.5,ExtBa=12.81
25/08/2022,06:13:38,TEMP=22.5,BA=5.24,STAT.A=1.5,ExtBa=12.69
25/08/2022,06:17:50,TEMP=22.7,BA=5.24,STAT.A=1.5,ExtBa=12.69
25/08/2022,06:22:49,TEMP=22.8,BA=5.36,STAT.A=1.5,ExtBa=12.70
25/08/2022,06:28:49,TEMP=23.2,BA=5.36,STAT.A=1.5,ExtBa=12.72
25/08/2022,06:36:09,TEMP=23.6,BA=5.24,STAT.A=1.5,ExtBa=12.73
25/08/2022,06:45:23,TEMP=24.3,BA=5.44,STAT.B=1.5,ExtBa=12.74
25/08/2022,06:54:31,TEMP=25.3,BA=5.24,STAT.A=1.5,ExtBa=12.63
25/08/2022,06:56:27,TEMP=25.7,BA=5.24,STAT.A=1.5,ExtBa=12.66
25/08/2022,07:00:09,TEMP=25.9,BA=5.40,STAT.A=1.5,ExtBa=12.70
25/08/2022,07:06:22,TEMP=26.2,BA=5.40,STAT.A=1.5,ExtBa=12.75
25/08/2022,07:13:28,TEMP=26.6,BA=5.56,STAT.C=2.0,ExtBa=12.74
25/08/2022,07:21:40,TEMP=26.6,BA=5.52,STAT.A=2.0,ExtBa=12.75
25/08/2022,07:31:15,TEMP=26.2,BA=5.52,STAT.A=2.0,ExtBa=12.75
25/08/2022,07:42:38,TEMP=25.8,BA=5.56,STAT.A=2.0,ExtBa=12.76
25/08/2022,07:56:25,TEMP=25.7,BA=5.44,STAT.A=2.0,ExtBa=12.78
25/08/2022,08:13:32,TEMP=25.1,BA=5.52,STAT.B=1.5,ExtBa=12.92
25/08/2022,08:49:24,TEMP=26.0,BA=5.60,STAT.B=2.0,ExtBa=13.05
25/08/2022,09:07:28,TEMP=27.3,BA=5.60,STAT.F,ExtBa=13.28
25/08/2022,09:22:26,TEMP=28.5,BA=5.36,STAT.D=2.0,ExtBa=12.80
25/08/2022,09:37:26,TEMP=29.1,BA=5.60,STAT.D=2.0,ExtBa=13.49
25/08/2022,09:52:26,TEMP=29.4,BA=5.60,STAT.D=2.0,ExtBa=13.54
25/08/2022,10:07:28,TEMP=29.2,BA=5.56,STAT.F,ExtBa=13.52
25/08/2022,10:26:11,TEMP=29.7,BA=5.36,STAT.D=2.0,ExtBa=13.24
25/08/2022,10:37:27,TEMP=29.2,BA=5.52,STAT.D=2.0,ExtBa=13.32
25/08/2022,10:52:27,TEMP=29.1,BA=5.52,STAT.D=2.0,ExtBa=13.52
25/08/2022,11:07:28,TEMP=28.7,BA=5.52,STAT.F,ExtBa=13.40
25/08/2022,11:22:27,TEMP=28.7,BA=5.52,STAT.D=2.0,ExtBa=13.38
25/08/2022,11:37:27,TEMP=29.0,BA=5.56,STAT.D=2.0,ExtBa=13.48
25/08/2022,11:52:27,TEMP=28.2,BA=5.52,STAT.D=2.0,ExtBa=13.35
25/08/2022,12:07:28,TEMP=28.0,BA=5.52,STAT.F,ExtBa=13.27
25/08/2022,12:22:27,TEMP=28.2,BA=5.52,STAT.D=2.0,ExtBa=13.43
25/08/2022,12:37:27,TEMP=29.7,BA=5.56,STAT.D=2.0,ExtBa=13.60
25/08/2022,12:52:27,TEMP=29.6,BA=5.52,STAT.D=2.0,ExtBa=13.52
25/08/2022,13:07:28,TEMP=28.8,BA=5.52,STAT.F,ExtBa=13.41
25/08/2022,13:22:27,TEMP=28.1,BA=5.48,STAT.D=2.0,ExtBa=13.50
25/08/2022,13:37:27,TEMP=27.8,BA=5.48,STAT.D=2.0,ExtBa=13.57
25/08/2022,13:52:27,TEMP=27.4,BA=5.52,STAT.D=2.0,ExtBa=13.61
25/08/2022,14:07:28,TEMP=27.2,BA=5.52,STAT.F,ExtBa=13.70
25/08/2022,14:22:27,TEMP=27.6,BA=5.52,STAT.D=2.0,ExtBa=13.98
25/08/2022,14:37:26,TEMP=28.6,BA=5.52,STAT.D=2.0,ExtBa=13.96
25/08/2022,14:52:26,TEMP=28.8,BA=5.52,STAT.D=2.0,ExtBa=13.96
25/08/2022,15:07:28,TEMP=28.6,BA=5.52,STAT.F,ExtBa=13.93
25/08/2022,15:25:32,TEMP=28.3,BA=5.36,STAT.B=2.0,ExtBa=13.40
25/08/2022,16:01:22,TEMP=27.3,BA=5.48,STAT.B=2.0,ExtBa=13.86
25/08/2022,16:18:29,TEMP=26.4,BA=5.40,STAT.A=2.0,ExtBa=13.31
25/08/2022,16:32:16,TEMP=25.6,BA=5.40,STAT.A=2.0,ExtBa=13.41
25/08/2022,16:43:39,TEMP=25.5,BA=5.48,STAT.A=2.0,ExtBa=13.52
25/08/2022,16:53:14,TEMP=25.4,BA=5.48,STAT.A=1.5,ExtBa=13.38
25/08/2022,17:01:26,TEMP=25.0,BA=5.44,STAT.C=1.5,ExtBa=13.32
25/08/2022,17:15:57,TEMP=25.4,BA=5.36,STAT.A=1.5,ExtBa=12.78
25/08/2022,17:21:35,TEMP=25.1,BA=5.36,STAT.A=1.5,ExtBa=12.92
25/08/2022,17:23:32,TEMP=25.5,BA=5.36,STAT.A=1.5,ExtBa=12.83
25/08/2022,17:25:27,TEMP=25.5,BA=5.36,STAT.A=1.5,ExtBa=12.84
25/08/2022,17:29:31,TEMP=25.2,BA=5.36,STAT.B=1.5,ExtBa=12.88
25/08/2022,17:38:59,TEMP=25.0,BA=5.36,STAT.A=1.5,ExtBa=12.78
25/08/2022,17:46:03,TEMP=24.5,BA=5.32,STAT.A=1.5,ExtBa=12.85
25/08/2022,17:52:03,TEMP=24.4,BA=5.40,STAT.A=1.5,ExtBa=12.84
25/08/2022,17:57:02,TEMP=24.3,BA=5.40,STAT.A=1.5,ExtBa=12.83
25/08/2022,18:01:14,TEMP=24.2,BA=5.36,STAT.A=1.5,ExtBa=12.83
25/08/2022,18:04:51,TEMP=24.1,BA=5.36,STAT.A=1.5,ExtBa=12.82